Shullsburg, Wisconsin
Current Conditions -  °F | °C
As of 12:10 AM on Saturday 29 Nov 2014 (Local Time) from KPVB Reporting Station
Clear Clear  
Wind Chill: 17°   Ceiling: Unl
Heat Index: 26°   Visibility: 4mi
Dew Point: 25°   Wind: 9mph
Humidity: 95%   Direction: 100°E
Pressure: 29.75"   Gusts: NA
Location:  42.57°N, 90.23°W
Report Text: KPVB 290610Z AUTO 10008KT 4SM CLR M03/M04 A2975 RMK AO1 T10321039
Loading
Personal Weather Stations






























Interactive Weather Map New forecast layout! Learn more

10-Day Weather Forecast

Advertisements
Track Severe Weather on mobile